Time;durP1;ratioP1;P1;durP2;ratioP2;P2;SDS_P1;SDS_P2;PMS_P1;PMS_P2;Temp;Humidity;BMP_temperature;BMP_pressure;BME280_temperature;BME280_humidity;BME280_pressure;Samples;Min_cycle;Max_cycle;Signal;HPM_P1;HPM_P2
2022/02/15 00:02:06;;;;;;;55.40;22.38;;;;;;;;;;4933898;28;20496;-61
2022/02/15 00:04:31;;;;;;;57.40;21.48;;;;;;;;;;4933423;28;20520;-61
2022/02/15 00:06:56;;;;;;;58.72;22.65;;;;;;;;;;4933968;28;20496;-61
2022/02/15 00:09:22;;;;;;;57.42;20.75;;;;;;;;;;4933652;28;20109;-61
2022/02/15 00:11:48;;;;;;;61.58;21.52;;;;;;;;;;4934400;28;20344;-60
2022/02/15 00:14:14;;;;;;;57.70;21.77;;;;;;;;;;4933992;28;20488;-61
2022/02/15 00:16:39;;;;;;;63.08;21.92;;;;;;;;;;4933270;28;20468;-60
2022/02/15 00:19:05;;;;;;;65.55;24.38;;;;;;;;;;4933838;28;20321;-61
2022/02/15 00:21:31;;;;;;;60.45;20.67;;;;;;;;;;4924981;28;20065;-61
2022/02/15 00:23:56;;;;;;;57.05;21.40;;;;;;;;;;4937158;28;20457;-61
2022/02/15 00:26:21;;;;;;;49.95;21.20;;;;;;;;;;4933489;28;20491;-61
2022/02/15 00:28:47;;;;;;;68.97;21.83;;;;;;;;;;4933047;28;20468;-63
2022/02/15 00:31:12;;;;;;;56.58;22.98;;;;;;;;;;4933047;28;20381;-61
2022/02/15 00:33:37;;;;;;;48.80;20.25;;;;;;;;;;4932583;28;20437;-61
2022/02/15 00:36:03;;;;;;;53.03;21.08;;;;;;;;;;4932806;28;20392;-60
2022/02/15 00:38:28;;;;;;;58.15;21.25;;;;;;;;;;4932406;28;20461;-61
2022/02/15 00:40:54;;;;;;;56.88;20.83;;;;;;;;;;4933689;28;20034;-62
2022/02/15 00:43:19;;;;;;;56.40;21.63;;;;;;;;;;4932746;28;20364;-61
2022/02/15 00:45:44;;;;;;;56.40;22.15;;;;;;;;;;4933147;28;20369;-61
2022/02/15 00:48:10;;;;;;;49.15;19.95;;;;;;;;;;4933497;28;20388;-61
2022/02/15 00:50:35;;;;;;;53.40;20.92;;;;;;;;;;4932692;28;20344;-60
2022/02/15 00:53:00;;;;;;;56.22;19.38;;;;;;;;;;4933255;28;20478;-63
2022/02/15 00:55:26;;;;;;;57.38;21.98;;;;;;;;;;4932686;28;20445;-61
2022/02/15 00:57:51;;;;;;;55.10;19.85;;;;;;;;;;4932898;28;20457;-61
2022/02/15 01:00:17;;;;;;;55.78;21.95;;;;;;;;;;4932956;28;20428;-61
2022/02/15 01:02:44;;;;;;;52.15;21.45;;;;;;;;;;4938477;28;20448;-61
2022/02/15 01:05:09;;;;;;;60.55;21.52;;;;;;;;;;4952235;28;20718;-61
2022/02/15 01:07:34;;;;;;;48.78;18.83;;;;;;;;;;4951782;28;20487;-61
2022/02/15 01:10:00;;;;;;;59.65;22.02;;;;;;;;;;4952290;28;20336;-61
2022/02/15 01:12:25;;;;;;;57.50;20.60;;;;;;;;;;4952657;28;20349;-61
2022/02/15 01:14:51;;;;;;;56.42;21.25;;;;;;;;;;4951492;28;20483;-60
2022/02/15 01:17:16;;;;;;;49.50;19.63;;;;;;;;;;4951675;28;20357;-61
2022/02/15 01:19:42;;;;;;;62.50;20.88;;;;;;;;;;4951471;28;20353;-61
2022/02/15 01:22:07;;;;;;;55.55;19.00;;;;;;;;;;4951551;28;20037;-61
2022/02/15 01:24:32;;;;;;;46.25;19.73;;;;;;;;;;4951386;28;20516;-61
2022/02/15 01:26:58;;;;;;;50.55;20.10;;;;;;;;;;4951940;28;20375;-61
2022/02/15 01:29:24;;;;;;;50.45;19.83;;;;;;;;;;4951752;28;20527;-61
2022/02/15 01:31:49;;;;;;;55.60;20.02;;;;;;;;;;4951883;28;20021;-61
2022/02/15 01:34:15;;;;;;;54.47;19.63;;;;;;;;;;4952813;28;20415;-61
2022/02/15 01:36:41;;;;;;;57.92;20.92;;;;;;;;;;4951542;28;20081;-61
2022/02/15 01:39:06;;;;;;;46.10;19.08;;;;;;;;;;4951675;28;20451;-61
2022/02/15 01:41:31;;;;;;;49.13;20.00;;;;;;;;;;4951393;28;20337;-61
2022/02/15 01:43:57;;;;;;;47.30;18.45;;;;;;;;;;4952783;28;20328;-60
2022/02/15 01:46:22;;;;;;;48.78;20.00;;;;;;;;;;4950739;28;20417;-62
2022/02/15 01:48:47;;;;;;;51.05;19.02;;;;;;;;;;4951224;28;20518;-61
2022/02/15 01:51:14;;;;;;;47.25;18.20;;;;;;;;;;4952223;28;20026;-61
2022/02/15 01:53:39;;;;;;;47.17;18.25;;;;;;;;;;4950907;28;20409;-61
2022/02/15 01:56:08;;;;;;;45.55;18.20;;;;;;;;;;4950755;28;20393;-61
2022/02/15 01:58:34;;;;;;;39.83;16.73;;;;;;;;;;4933874;28;20464;-61
2022/02/15 02:00:59;;;;;;;46.42;16.67;;;;;;;;;;4950745;28;20428;-62
2022/02/15 02:03:25;;;;;;;45.33;18.25;;;;;;;;;;4951835;28;20026;-61
2022/02/15 02:05:50;;;;;;;49.20;18.23;;;;;;;;;;4951750;28;20305;-61
2022/02/15 02:08:17;;;;;;;53.42;19.48;;;;;;;;;;4951886;28;20436;-61
2022/02/15 02:10:42;;;;;;;46.17;17.90;;;;;;;;;;4950944;28;20357;-61
2022/02/15 02:13:08;;;;;;;43.47;18.20;;;;;;;;;;4951185;28;20356;-61
2022/02/15 02:15:33;;;;;;;47.15;18.10;;;;;;;;;;4951068;28;20346;-61
2022/02/15 02:17:59;;;;;;;46.03;17.98;;;;;;;;;;4950554;28;20133;-61
2022/02/15 02:20:24;;;;;;;49.50;17.88;;;;;;;;;;4933989;28;20320;-61
2022/02/15 02:22:50;;;;;;;48.08;17.88;;;;;;;;;;4950226;28;20026;-61
2022/02/15 02:25:17;;;;;;;43.63;17.52;;;;;;;;;;4950317;28;20447;-61
2022/02/15 02:27:43;;;;;;;45.40;17.27;;;;;;;;;;4951458;28;20375;-61
2022/02/15 02:30:09;;;;;;;41.88;16.85;;;;;;;;;;4950396;28;20099;-61
2022/02/15 02:32:35;;;;;;;45.85;16.48;;;;;;;;;;4951096;28;20356;-60
2022/02/15 02:35:01;;;;;;;45.50;16.35;;;;;;;;;;4951538;28;20386;-61
2022/02/15 02:37:28;;;;;;;44.22;16.38;;;;;;;;;;4950069;28;20352;-61
2022/02/15 02:39:55;;;;;;;40.42;16.00;;;;;;;;;;4950471;28;20456;-62
2022/02/15 02:42:26;;;;;;;47.50;15.43;;;;;;;;;;4950235;28;20034;-61
2022/02/15 02:44:56;;;;;;;41.58;15.98;;;;;;;;;;4949924;28;20317;-61
2022/02/15 02:47:21;;;;;;;40.72;15.77;;;;;;;;;;4950102;28;20378;-60
2022/02/15 02:49:47;;;;;;;43.67;15.43;;;;;;;;;;4949948;28;20034;-61
2022/02/15 02:52:12;;;;;;;44.25;16.45;;;;;;;;;;4949788;28;20480;-62
2022/02/15 02:54:40;;;;;;;40.58;16.67;;;;;;;;;;4950256;28;20519;-61
2022/02/15 02:57:06;;;;;;;44.00;15.50;;;;;;;;;;4950302;28;20022;-61
2022/02/15 02:59:32;;;;;;;44.95;16.13;;;;;;;;;;4950804;28;20396;-60
2022/02/15 03:01:57;;;;;;;39.28;15.63;;;;;;;;;;4951414;28;20348;-62
2022/02/15 03:04:22;;;;;;;39.47;15.13;;;;;;;;;;4949834;28;20457;-61
2022/02/15 03:06:48;;;;;;;39.40;15.23;;;;;;;;;;4949865;28;20566;-61
2022/02/15 03:09:14;;;;;;;37.78;14.73;;;;;;;;;;4949846;28;20429;-61
2022/02/15 03:11:39;;;;;;;32.85;14.20;;;;;;;;;;4950709;28;20464;-60
2022/02/15 03:14:05;;;;;;;37.53;13.55;;;;;;;;;;4949911;28;20432;-61
2022/02/15 03:16:31;;;;;;;36.88;14.43;;;;;;;;;;4949757;28;20372;-61
2022/02/15 03:18:56;;;;;;;43.08;15.10;;;;;;;;;;4950913;28;20416;-61
2022/02/15 03:21:22;;;;;;;37.88;14.90;;;;;;;;;;4951238;28;20058;-62
2022/02/15 03:23:48;;;;;;;35.65;13.40;;;;;;;;;;4950420;28;20496;-61
2022/02/15 03:26:13;;;;;;;43.15;15.63;;;;;;;;;;4951901;28;20060;-61
2022/02/15 03:28:38;;;;;;;39.65;15.95;;;;;;;;;;4954211;28;20393;-61
2022/02/15 03:31:04;;;;;;;36.65;14.88;;;;;;;;;;4953503;28;20313;-61
2022/02/15 03:33:30;;;;;;;36.85;15.77;;;;;;;;;;4955426;28;20337;-61
2022/02/15 03:35:55;;;;;;;38.58;14.95;;;;;;;;;;4954485;28;20357;-60
2022/02/15 03:38:20;;;;;;;38.03;15.10;;;;;;;;;;4952862;28;20636;-61
2022/02/15 03:43:30;;;;;;;39.63;14.90;;;;;;;;;;4954373;28;20344;-63
2022/02/15 03:45:56;;;;;;;39.50;15.20;;;;;;;;;;4953294;28;20391;-61
2022/02/15 03:48:21;;;;;;;37.58;13.32;;;;;;;;;;4954141;28;20487;-60
2022/02/15 03:50:46;;;;;;;35.95;13.75;;;;;;;;;;4953542;28;20417;-62
2022/02/15 03:53:12;;;;;;;40.60;14.27;;;;;;;;;;4953256;28;20519;-60
2022/02/15 03:55:38;;;;;;;34.58;15.07;;;;;;;;;;4953177;28;20451;-61
2022/02/15 03:58:04;;;;;;;33.03;13.60;;;;;;;;;;4954058;28;20417;-61
2022/02/15 04:00:29;;;;;;;34.78;13.95;;;;;;;;;;4953373;28;20404;-62
2022/02/15 04:02:57;;;;;;;33.33;13.73;;;;;;;;;;4953666;28;20436;-61
2022/02/15 04:05:23;;;;;;;34.08;12.68;;;;;;;;;;4952604;28;20413;-61
2022/02/15 04:07:48;;;;;;;30.88;12.52;;;;;;;;;;4952854;28;20459;-61
2022/02/15 04:10:14;;;;;;;34.38;13.52;;;;;;;;;;4952776;28;20448;-60
2022/02/15 04:12:40;;;;;;;28.73;12.32;;;;;;;;;;4952813;28;20026;-61
2022/02/15 04:15:05;;;;;;;43.72;14.85;;;;;;;;;;4953313;28;20429;-60
2022/02/15 04:17:30;;;;;;;29.40;12.48;;;;;;;;;;4952584;28;20392;-61
2022/02/15 04:19:56;;;;;;;38.38;13.15;;;;;;;;;;4952943;28;20537;-61
2022/02/15 04:22:21;;;;;;;34.28;14.77;;;;;;;;;;4953113;28;20504;-61
2022/02/15 04:24:46;;;;;;;32.08;12.10;;;;;;;;;;4952852;28;20416;-61
2022/02/15 04:27:12;;;;;;;31.65;13.25;;;;;;;;;;4952735;28;20436;-61
2022/02/15 04:29:37;;;;;;;35.10;13.38;;;;;;;;;;4952571;28;20391;-61
2022/02/15 04:32:03;;;;;;;31.58;13.18;;;;;;;;;;4952272;28;20364;-61
2022/02/15 04:34:28;;;;;;;32.75;12.38;;;;;;;;;;4952863;28;20026;-60
2022/02/15 04:36:53;;;;;;;24.90;11.15;;;;;;;;;;4951371;28;20042;-61
2022/02/15 04:39:19;;;;;;;34.05;14.40;;;;;;;;;;4953514;28;20366;-61
2022/02/15 04:41:44;;;;;;;30.42;12.23;;;;;;;;;;4952483;28;20452;-61
2022/02/15 04:44:09;;;;;;;27.63;12.38;;;;;;;;;;4952300;28;20528;-61
2022/02/15 04:46:34;;;;;;;31.30;12.75;;;;;;;;;;4952375;28;20456;-61
2022/02/15 04:49:00;;;;;;;34.83;14.02;;;;;;;;;;4952136;28;20499;-60
2022/02/15 04:51:26;;;;;;;33.42;13.90;;;;;;;;;;4952330;28;20108;-61
2022/02/15 04:53:51;;;;;;;34.05;13.32;;;;;;;;;;4952121;28;20150;-61
2022/02/15 04:56:17;;;;;;;31.42;12.68;;;;;;;;;;4953032;28;20471;-60
2022/02/15 04:58:42;;;;;;;32.78;13.82;;;;;;;;;;4952175;28;20104;-62
2022/02/15 05:01:07;;;;;;;32.50;12.65;;;;;;;;;;4952193;28;20496;-62
2022/02/15 05:03:33;;;;;;;29.50;13.65;;;;;;;;;;4952179;28;20332;-60
2022/02/15 05:05:59;;;;;;;29.33;13.00;;;;;;;;;;4951959;28;20097;-60
2022/02/15 05:08:24;;;;;;;31.58;12.48;;;;;;;;;;4952039;28;20049;-61
2022/02/15 05:10:50;;;;;;;27.10;12.52;;;;;;;;;;4953129;28;20115;-62
2022/02/15 05:13:15;;;;;;;29.55;12.82;;;;;;;;;;4952301;28;20026;-61
2022/02/15 05:15:40;;;;;;;30.48;12.90;;;;;;;;;;4951879;28;20425;-61
2022/02/15 05:18:06;;;;;;;33.20;13.50;;;;;;;;;;4951669;28;20057;-60
2022/02/15 05:20:33;;;;;;;27.95;11.93;;;;;;;;;;4951370;28;20483;-61
2022/02/15 05:22:58;;;;;;;28.02;12.65;;;;;;;;;;4951543;28;20352;-61
2022/02/15 05:25:24;;;;;;;30.42;12.90;;;;;;;;;;4951929;28;20372;-61
2022/02/15 05:27:51;;;;;;;37.67;13.35;;;;;;;;;;4951659;28;20428;-61
2022/02/15 05:30:17;;;;;;;32.13;12.95;;;;;;;;;;4951735;28;20499;-61
2022/02/15 05:32:42;;;;;;;32.85;12.35;;;;;;;;;;4951885;28;20421;-60
2022/02/15 05:35:08;;;;;;;26.75;10.98;;;;;;;;;;4951172;28;20475;-62
2022/02/15 05:37:34;;;;;;;30.48;13.50;;;;;;;;;;4951124;28;20365;-61
2022/02/15 05:40:00;;;;;;;29.48;12.75;;;;;;;;;;4951635;28;20467;-61
2022/02/15 05:42:25;;;;;;;30.85;11.63;;;;;;;;;;4951976;28;20389;-60
2022/02/15 05:44:50;;;;;;;29.40;12.88;;;;;;;;;;4950720;28;20317;-61
2022/02/15 05:47:16;;;;;;;33.25;13.63;;;;;;;;;;4951039;28;20396;-60
2022/02/15 05:52:25;;;;;;;23.58;11.32;;;;;;;;;;4951371;28;20065;-60
2022/02/15 05:54:50;;;;;;;31.95;13.35;;;;;;;;;;4950728;28;20034;-60
2022/02/15 05:57:16;;;;;;;34.35;13.15;;;;;;;;;;4950831;28;20460;-61
2022/02/15 05:59:41;;;;;;;32.35;13.13;;;;;;;;;;4950971;28;20480;-61
2022/02/15 06:02:07;;;;;;;31.17;12.73;;;;;;;;;;4951412;28;20423;-61
2022/02/15 06:04:32;;;;;;;31.02;13.63;;;;;;;;;;4950950;28;20431;-61
2022/02/15 06:06:57;;;;;;;32.00;13.88;;;;;;;;;;4951021;28;20092;-61
2022/02/15 06:09:23;;;;;;;33.92;13.57;;;;;;;;;;4950309;28;20490;-60
2022/02/15 06:11:48;;;;;;;30.45;12.27;;;;;;;;;;4950344;28;20440;-61
2022/02/15 06:14:13;;;;;;;41.05;17.13;;;;;;;;;;4950556;28;20437;-60
2022/02/15 06:16:40;;;;;;;35.13;14.40;;;;;;;;;;4950627;28;20056;-61
2022/02/15 06:19:05;;;;;;;34.15;13.55;;;;;;;;;;4950758;28;20356;-61
2022/02/15 06:21:30;;;;;;;39.45;15.50;;;;;;;;;;4950212;28;20084;-60
2022/02/15 06:23:57;;;;;;;32.33;14.27;;;;;;;;;;4950664;28;20392;-60
2022/02/15 06:26:22;;;;;;;34.47;13.90;;;;;;;;;;4950823;28;20519;-61
2022/02/15 06:28:48;;;;;;;37.78;14.38;;;;;;;;;;4950906;28;20484;-61
2022/02/15 06:31:13;;;;;;;35.47;13.75;;;;;;;;;;4950452;28;20484;-62
2022/02/15 06:33:39;;;;;;;37.15;14.18;;;;;;;;;;4950574;28;20029;-60
2022/02/15 06:36:04;;;;;;;36.30;14.52;;;;;;;;;;4950244;28;20320;-61
2022/02/15 06:38:30;;;;;;;40.08;14.48;;;;;;;;;;4949816;28;20464;-61
2022/02/15 06:40:55;;;;;;;36.33;15.35;;;;;;;;;;4950242;28;20385;-60
2022/02/15 06:43:20;;;;;;;47.10;16.38;;;;;;;;;;4951237;28;20356;-61
2022/02/15 06:45:46;;;;;;;38.65;16.00;;;;;;;;;;4950460;28;20345;-61
2022/02/15 06:48:11;;;;;;;40.17;16.80;;;;;;;;;;4950156;28;20401;-61
2022/02/15 06:50:38;;;;;;;36.17;15.25;;;;;;;;;;4950446;28;20410;-61
2022/02/15 06:53:03;;;;;;;38.15;15.98;;;;;;;;;;4949902;28;20117;-61
2022/02/15 06:55:29;;;;;;;35.85;13.80;;;;;;;;;;4932561;28;20056;-60
2022/02/15 06:57:54;;;;;;;43.10;15.13;;;;;;;;;;4950014;28;20341;-61
2022/02/15 07:00:19;;;;;;;42.70;17.05;;;;;;;;;;4949985;28;20461;-61
2022/02/15 07:02:45;;;;;;;38.65;14.90;;;;;;;;;;4950615;28;20380;-61
2022/02/15 07:05:10;;;;;;;36.72;15.00;;;;;;;;;;4951145;28;20468;-61
2022/02/15 07:07:35;;;;;;;40.65;16.42;;;;;;;;;;4949894;28;20527;-61
2022/02/15 07:10:01;;;;;;;41.63;16.33;;;;;;;;;;4950284;28;20108;-61
2022/02/15 07:12:26;;;;;;;38.72;15.45;;;;;;;;;;4932249;28;20582;-61
2022/02/15 07:14:52;;;;;;;36.95;16.23;;;;;;;;;;4949898;28;20057;-60
2022/02/15 07:17:17;;;;;;;39.13;15.52;;;;;;;;;;4949974;28;20345;-60
2022/02/15 07:19:42;;;;;;;35.08;15.73;;;;;;;;;;4949923;28;20391;-60
2022/02/15 07:22:08;;;;;;;39.83;14.77;;;;;;;;;;4950183;28;20440;-60
2022/02/15 07:24:35;;;;;;;39.33;16.45;;;;;;;;;;4950348;28;20367;-61
2022/02/15 07:27:00;;;;;;;44.30;16.75;;;;;;;;;;4949725;28;20088;-60
2022/02/15 07:29:26;;;;;;;42.75;17.02;;;;;;;;;;4950014;28;20034;-61
2022/02/15 07:31:51;;;;;;;38.83;15.65;;;;;;;;;;4949790;28;20427;-61
2022/02/15 07:34:17;;;;;;;40.20;15.40;;;;;;;;;;4949542;28;20517;-61
2022/02/15 07:36:44;;;;;;;39.53;15.18;;;;;;;;;;4949979;28;20526;-60
2022/02/15 07:39:09;;;;;;;42.80;15.48;;;;;;;;;;4949489;28;20341;-60
2022/02/15 07:41:35;;;;;;;35.35;14.70;;;;;;;;;;4949685;28;20052;-61
2022/02/15 07:44:01;;;;;;;37.88;16.52;;;;;;;;;;4949938;28;20657;-61
2022/02/15 07:46:27;;;;;;;38.78;15.50;;;;;;;;;;4950186;28;20460;-61
2022/02/15 07:48:52;;;;;;;39.22;15.38;;;;;;;;;;4949625;28;20364;-61
2022/02/15 07:51:18;;;;;;;39.80;17.65;;;;;;;;;;4949687;28;20396;-61
2022/02/15 07:53:44;;;;;;;40.65;16.90;;;;;;;;;;4949546;28;20129;-61
2022/02/15 07:56:09;;;;;;;40.92;17.23;;;;;;;;;;4949256;28;20437;-61
2022/02/15 07:58:35;;;;;;;37.95;16.35;;;;;;;;;;4950868;28;20449;-61
2022/02/15 08:01:00;;;;;;;41.10;17.60;;;;;;;;;;4948851;28;20338;-60
2022/02/15 08:03:26;;;;;;;44.38;17.08;;;;;;;;;;4949299;28;20030;-61
2022/02/15 08:05:51;;;;;;;37.42;16.63;;;;;;;;;;4949247;28;20448;-61
2022/02/15 08:08:17;;;;;;;39.08;16.10;;;;;;;;;;4949816;28;20431;-61
2022/02/15 08:10:43;;;;;;;45.40;17.35;;;;;;;;;;4949521;28;20485;-61
2022/02/15 08:13:08;;;;;;;42.28;17.10;;;;;;;;;;4935201;28;20177;-61
2022/02/15 08:15:36;;;;;;;43.65;18.63;;;;;;;;;;4953297;28;20413;-60
2022/02/15 08:18:03;;;;;;;49.88;18.27;;;;;;;;;;4953947;28;20030;-61
2022/02/15 08:20:29;;;;;;;42.25;17.73;;;;;;;;;;4952848;28;20396;-60
2022/02/15 08:22:54;;;;;;;44.85;17.92;;;;;;;;;;4953324;28;20373;-61
2022/02/15 08:25:20;;;;;;;42.28;17.85;;;;;;;;;;4952840;28;20397;-60
2022/02/15 08:27:46;;;;;;;38.47;17.45;;;;;;;;;;4952606;28;20377;-60
2022/02/15 08:30:12;;;;;;;41.72;17.65;;;;;;;;;;4952573;28;20124;-61
2022/02/15 08:32:38;;;;;;;37.13;16.30;;;;;;;;;;4952391;28;20452;-61
2022/02/15 08:35:05;;;;;;;46.42;18.10;;;;;;;;;;4952494;28;20332;-60
2022/02/15 08:37:32;;;;;;;39.30;17.52;;;;;;;;;;4952007;28;20073;-61
2022/02/15 08:39:58;;;;;;;42.05;18.40;;;;;;;;;;4952432;28;20510;-61
2022/02/15 08:42:23;;;;;;;43.15;17.48;;;;;;;;;;4952466;28;20034;-61
2022/02/15 08:44:53;;;;;;;42.90;18.33;;;;;;;;;;4952003;28;20467;-61
2022/02/15 08:47:19;;;;;;;37.95;16.55;;;;;;;;;;4953259;28;20476;-61
2022/02/15 08:49:47;;;;;;;41.33;16.83;;;;;;;;;;4952144;28;20582;-61
2022/02/15 08:52:13;;;;;;;44.40;17.13;;;;;;;;;;4952288;28;20029;-61
2022/02/15 08:54:38;;;;;;;45.08;16.85;;;;;;;;;;4951993;28;20030;-61
2022/02/15 08:57:05;;;;;;;39.20;17.50;;;;;;;;;;4951640;28;20053;-61
2022/02/15 08:59:31;;;;;;;35.55;15.40;;;;;;;;;;4953082;28;20372;-61
2022/02/15 09:01:56;;;;;;;38.85;16.33;;;;;;;;;;4952794;28;20333;-61
2022/02/15 09:04:21;;;;;;;35.00;15.82;;;;;;;;;;4952492;28;20026;-61
2022/02/15 09:06:46;;;;;;;40.25;16.08;;;;;;;;;;4951812;28;20504;-61
2022/02/15 09:09:13;;;;;;;35.28;16.50;;;;;;;;;;4951718;28;20313;-63
2022/02/15 09:11:39;;;;;;;43.53;17.10;;;;;;;;;;4951692;28;20318;-61
2022/02/15 09:14:04;;;;;;;37.40;16.45;;;;;;;;;;4951908;28;20344;-62
2022/02/15 09:16:31;;;;;;;42.60;16.88;;;;;;;;;;4952871;28;20443;-60
2022/02/15 09:18:56;;;;;;;37.30;15.68;;;;;;;;;;4952448;28;20444;-61
2022/02/15 09:21:22;;;;;;;34.72;14.98;;;;;;;;;;4951097;28;20520;-61
2022/02/15 09:23:47;;;;;;;37.83;16.60;;;;;;;;;;4950394;28;20400;-61
2022/02/15 09:26:13;;;;;;;36.92;15.55;;;;;;;;;;4952386;28;20428;-60
2022/02/15 09:28:38;;;;;;;34.65;14.40;;;;;;;;;;4951626;28;20487;-60
2022/02/15 09:31:05;;;;;;;34.15;14.00;;;;;;;;;;4952261;28;20434;-62
2022/02/15 09:33:30;;;;;;;37.13;16.63;;;;;;;;;;4951596;28;20449;-61
2022/02/15 09:35:56;;;;;;;36.22;16.45;;;;;;;;;;4951061;28;20447;-62
2022/02/15 09:38:21;;;;;;;35.53;14.65;;;;;;;;;;4930110;28;20441;-61
2022/02/15 09:40:49;;;;;;;34.55;15.45;;;;;;;;;;4931836;28;20345;-61
2022/02/15 09:43:14;;;;;;;34.47;15.13;;;;;;;;;;4932386;28;20389;-61
2022/02/15 09:45:40;;;;;;;35.03;13.68;;;;;;;;;;4931763;28;20038;-61
2022/02/15 09:48:08;;;;;;;34.20;15.00;;;;;;;;;;4930577;28;20453;-61
2022/02/15 09:50:34;;;;;;;27.23;14.70;;;;;;;;;;4931688;28;20425;-61
2022/02/15 09:53:00;;;;;;;34.33;15.45;;;;;;;;;;4930005;28;20459;-61
2022/02/15 09:55:25;;;;;;;34.88;14.57;;;;;;;;;;4931665;28;20116;-62
2022/02/15 09:57:51;;;;;;;35.28;13.77;;;;;;;;;;4931720;28;20412;-60
2022/02/15 10:00:21;;;;;;;35.80;15.07;;;;;;;;;;4932136;28;20597;-61
2022/02/15 10:02:46;;;;;;;36.92;15.10;;;;;;;;;;4931515;28;20384;-60
2022/02/15 10:05:16;;;;;;;28.98;14.85;;;;;;;;;;4932404;28;20385;-63
2022/02/15 10:07:54;;;;;;;31.33;14.50;;;;;;;;;;4932369;28;20484;-60
2022/02/15 10:10:28;;;;;;;31.05;12.55;;;;;;;;;;4929916;28;20457;-61
2022/02/15 10:12:58;;;;;;;27.23;13.50;;;;;;;;;;4931332;28;20392;-61
2022/02/15 10:15:28;;;;;;;30.98;13.95;;;;;;;;;;4931653;28;20038;-61
2022/02/15 10:18:21;;;;;;;33.05;13.93;;;;;;;;;;4932428;28;20512;-61
2022/02/15 10:20:46;;;;;;;30.90;12.98;;;;;;;;;;4931428;28;20449;-61
2022/02/15 10:23:22;;;;;;;29.30;13.32;;;;;;;;;;4930767;28;20422;-61
2022/02/15 10:25:48;;;;;;;25.73;11.85;;;;;;;;;;4932066;28;20345;-61
2022/02/15 10:28:18;;;;;;;26.30;12.25;;;;;;;;;;4931181;28;20432;-61
2022/02/15 10:30:55;;;;;;;32.20;14.35;;;;;;;;;;4929925;28;20410;-61
2022/02/15 10:33:26;;;;;;;33.67;13.55;;;;;;;;;;4931235;28;20441;-62
2022/02/15 10:35:55;;;;;;;27.67;13.25;;;;;;;;;;4931980;28;20385;-61
2022/02/15 10:38:25;;;;;;;29.05;13.82;;;;;;;;;;4947307;28;20367;-61
2022/02/15 10:41:04;;;;;;;24.95;12.65;;;;;;;;;;4949971;28;20479;-61
2022/02/15 10:43:44;;;;;;;30.70;12.52;;;;;;;;;;4951115;28;20045;-61
2022/02/15 10:46:15;;;;;;;26.10;11.43;;;;;;;;;;4950805;28;20516;-61
2022/02/15 10:48:40;;;;;;;29.25;12.95;;;;;;;;;;4951716;28;20319;-61
2022/02/15 10:51:06;;;;;;;23.42;11.38;;;;;;;;;;4951153;28;20096;-61
2022/02/15 10:53:33;;;;;;;24.92;11.30;;;;;;;;;;4950314;28;20080;-61
2022/02/15 10:55:59;;;;;;;27.23;12.80;;;;;;;;;;4932567;28;20420;-61
2022/02/15 10:58:25;;;;;;;25.83;12.90;;;;;;;;;;4950342;28;20352;-61
2022/02/15 11:00:51;;;;;;;29.77;12.73;;;;;;;;;;4951801;28;20436;-61
2022/02/15 11:03:19;;;;;;;25.83;12.40;;;;;;;;;;4932808;28;20061;-61
2022/02/15 11:05:44;;;;;;;28.45;13.65;;;;;;;;;;4950721;28;20455;-61
2022/02/15 11:08:10;;;;;;;29.23;12.68;;;;;;;;;;4951389;28;20336;-61
2022/02/15 11:10:42;;;;;;;28.25;12.43;;;;;;;;;;4950695;28;20385;-61
2022/02/15 11:13:07;;;;;;;26.08;11.60;;;;;;;;;;4932676;28;20088;-61
2022/02/15 11:15:35;;;;;;;26.15;10.65;;;;;;;;;;4951598;28;20057;-61
2022/02/15 11:18:05;;;;;;;24.10;11.20;;;;;;;;;;4949931;28;20531;-61
2022/02/15 11:20:50;;;;;;;26.90;11.85;;;;;;;;;;4950114;28;20528;-61
2022/02/15 11:23:20;;;;;;;23.80;11.52;;;;;;;;;;4949859;28;20452;-61
2022/02/15 11:25:48;;;;;;;28.20;13.02;;;;;;;;;;4949694;28;20399;-61
2022/02/15 11:28:15;;;;;;;23.25;11.27;;;;;;;;;;4949297;28;20048;-61
2022/02/15 11:30:46;;;;;;;21.65;10.52;;;;;;;;;;4949686;28;20433;-60
2022/02/15 11:33:20;;;;;;;24.33;10.18;;;;;;;;;;4950874;28;20372;-61
2022/02/15 11:36:03;;;;;;;23.15;11.02;;;;;;;;;;4949625;28;20480;-61
2022/02/15 11:38:28;;;;;;;27.88;11.68;;;;;;;;;;4949135;28;20104;-61
2022/02/15 11:40:56;;;;;;;26.10;12.25;;;;;;;;;;4949662;28;20124;-61
2022/02/15 11:43:22;;;;;;;22.90;10.65;;;;;;;;;;4950500;28;20337;-60
2022/02/15 11:45:47;;;;;;;23.65;10.85;;;;;;;;;;4950250;28;20340;-61
2022/02/15 11:48:12;;;;;;;22.33;10.40;;;;;;;;;;4953287;28;20103;-61
2022/02/15 11:50:47;;;;;;;24.33;10.40;;;;;;;;;;4953821;28;20132;-61
2022/02/15 11:53:13;;;;;;;25.42;10.30;;;;;;;;;;4953358;28;20456;-61
2022/02/15 11:55:39;;;;;;;21.17;9.85;;;;;;;;;;4953239;28;20550;-61
2022/02/15 11:58:08;;;;;;;24.77;11.70;;;;;;;;;;4953244;28;20463;-61
2022/02/15 12:00:35;;;;;;;24.45;11.63;;;;;;;;;;4953167;28;20372;-61
2022/02/15 12:03:00;;;;;;;22.90;11.77;;;;;;;;;;4953630;28;20428;-61
2022/02/15 12:05:28;;;;;;;24.92;11.20;;;;;;;;;;4953410;28;20392;-61
2022/02/15 12:07:54;;;;;;;20.45;8.98;;;;;;;;;;4952968;28;20099;-61
2022/02/15 12:10:20;;;;;;;28.35;10.27;;;;;;;;;;4952692;28;20338;-61
2022/02/15 12:12:47;;;;;;;25.65;10.77;;;;;;;;;;4953074;28;20073;-61
2022/02/15 12:15:13;;;;;;;25.45;11.55;;;;;;;;;;4952953;28;20417;-61
2022/02/15 12:17:46;;;;;;;25.30;10.95;;;;;;;;;;4953696;28;20475;-61
2022/02/15 12:20:14;;;;;;;23.17;11.32;;;;;;;;;;4952676;28;20455;-61
2022/02/15 12:22:41;;;;;;;21.52;10.02;;;;;;;;;;4935830;28;20440;-62
2022/02/15 12:25:08;;;;;;;20.70;10.02;;;;;;;;;;4952901;28;20408;-61
2022/02/15 12:27:33;;;;;;;29.27;10.73;;;;;;;;;;4952990;28;20433;-61
2022/02/15 12:29:59;;;;;;;26.33;10.15;;;;;;;;;;4953584;28;20352;-61
2022/02/15 12:32:30;;;;;;;18.48;10.23;;;;;;;;;;4954342;28;20511;-61
2022/02/15 12:34:57;;;;;;;21.33;10.57;;;;;;;;;;4954343;28;20515;-61
2022/02/15 12:37:25;;;;;;;24.95;10.77;;;;;;;;;;4953004;28;20132;-61
2022/02/15 12:39:52;;;;;;;23.70;10.68;;;;;;;;;;4952546;28;20444;-62
2022/02/15 12:42:18;;;;;;;22.48;10.98;;;;;;;;;;4953042;28;20340;-61
2022/02/15 12:44:58;;;;;;;22.35;10.75;;;;;;;;;;4953198;28;20512;-61
2022/02/15 12:47:27;;;;;;;19.85;10.82;;;;;;;;;;4953695;28;20428;-61
2022/02/15 12:49:53;;;;;;;20.48;10.60;;;;;;;;;;4952381;28;20069;-62
2022/02/15 12:52:20;;;;;;;27.60;10.82;;;;;;;;;;4953156;28;20077;-61
2022/02/15 12:55:01;;;;;;;22.08;10.32;;;;;;;;;;4952366;28;20033;-61
2022/02/15 12:57:27;;;;;;;16.50;8.82;;;;;;;;;;4952843;28;20352;-61
2022/02/15 12:59:55;;;;;;;21.30;9.98;;;;;;;;;;4952095;28;20448;-61
2022/02/15 13:02:25;;;;;;;21.92;10.27;;;;;;;;;;4952361;28;20379;-61
2022/02/15 13:04:54;;;;;;;24.60;10.38;;;;;;;;;;4951997;28;20060;-61
2022/02/15 13:07:20;;;;;;;24.35;10.80;;;;;;;;;;4952122;28;20419;-60
2022/02/15 13:09:57;;;;;;;26.15;10.30;;;;;;;;;;4934483;28;20330;-61
2022/02/15 13:12:26;;;;;;;22.55;9.80;;;;;;;;;;4952108;28;20348;-61
2022/02/15 13:14:56;;;;;;;26.77;11.68;;;;;;;;;;4952260;28;20401;-60
2022/02/15 13:17:42;;;;;;;22.85;10.10;;;;;;;;;;4952888;28;20364;-60
2022/02/15 13:20:22;;;;;;;18.13;9.02;;;;;;;;;;4952849;28;20340;-61
2022/02/15 13:22:50;;;;;;;20.88;10.27;;;;;;;;;;4951249;28;20445;-61
2022/02/15 13:25:16;;;;;;;22.67;9.93;;;;;;;;;;4952196;28;20468;-61
2022/02/15 13:27:42;;;;;;;24.27;10.55;;;;;;;;;;4951362;28;20527;-61
2022/02/15 13:30:37;;;;;;;18.73;9.00;;;;;;;;;;4951937;28;20314;-62
2022/02/15 13:33:06;;;;;;;17.77;9.10;;;;;;;;;;4936080;28;20369;-61
2022/02/15 13:35:34;;;;;;;23.02;10.90;;;;;;;;;;4951199;28;20368;-61
2022/02/15 13:37:59;;;;;;;18.63;9.63;;;;;;;;;;4951081;28;20356;-61
2022/02/15 13:40:29;;;;;;;22.67;10.52;;;;;;;;;;4951354;28;20022;-61
2022/02/15 13:42:58;;;;;;;18.15;9.25;;;;;;;;;;4951448;28;20084;-61
2022/02/15 13:45:24;;;;;;;26.10;10.05;;;;;;;;;;4951389;28;20424;-61
2022/02/15 13:47:50;;;;;;;19.95;9.43;;;;;;;;;;4951928;28;20141;-61
2022/02/15 13:50:16;;;;;;;22.88;9.15;;;;;;;;;;4951564;28;20452;-61
2022/02/15 13:52:41;;;;;;;17.63;9.07;;;;;;;;;;4951620;28;20357;-61
2022/02/15 13:55:10;;;;;;;19.60;9.88;;;;;;;;;;4951248;28;20042;-61
2022/02/15 13:57:35;;;;;;;16.60;8.50;;;;;;;;;;4951806;28;20324;-61
2022/02/15 14:00:01;;;;;;;16.60;8.68;;;;;;;;;;4951148;28;20349;-61
2022/02/15 14:02:26;;;;;;;19.30;9.63;;;;;;;;;;4950788;28;20450;-61
2022/02/15 14:04:52;;;;;;;24.58;9.52;;;;;;;;;;4950858;28;20399;-61
2022/02/15 14:07:20;;;;;;;23.67;8.82;;;;;;;;;;4950519;28;20436;-60
2022/02/15 14:09:46;;;;;;;17.65;9.15;;;;;;;;;;4951265;28;20334;-61
2022/02/15 14:12:15;;;;;;;22.17;9.55;;;;;;;;;;4951356;28;20400;-61
2022/02/15 14:14:41;;;;;;;16.45;9.15;;;;;;;;;;4951651;28;20462;-61
2022/02/15 14:19:51;;;;;;;20.10;8.85;;;;;;;;;;4951041;28;20352;-61
2022/02/15 14:22:16;;;;;;;17.45;9.55;;;;;;;;;;4950296;28;20091;-61
2022/02/15 14:24:42;;;;;;;19.35;9.18;;;;;;;;;;4950385;28;20444;-61